createdAt,value
2018-12-21T00:03:00.800Z,15.5
2018-12-21T00:08:55.793Z,14.08
2018-12-21T00:14:50.814Z,15.8
2018-12-21T00:20:45.829Z,13.75
2018-12-21T00:26:40.809Z,11.15
2018-12-21T00:32:35.794Z,12.63
2018-12-21T00:38:30.805Z,11.17
2018-12-21T00:44:25.828Z,10.79
2018-12-21T00:50:20.828Z,8.3
2018-12-21T00:56:15.860Z,8.59
2018-12-21T01:02:10.844Z,8.47
2018-12-21T01:08:05.847Z,8.86
2018-12-21T01:14:00.851Z,12.27
2018-12-21T01:19:55.834Z,13.51
2018-12-21T01:25:50.846Z,13.28
2018-12-21T01:31:45.843Z,12.55
2018-12-21T01:37:40.861Z,11.9
2018-12-21T01:43:35.863Z,9.45
2018-12-21T01:49:30.866Z,10.32
2018-12-21T01:55:25.868Z,9.43
2018-12-21T02:01:20.838Z,11.11
2018-12-21T02:07:15.916Z,12.15
2018-12-21T02:13:10.882Z,14.58
2018-12-21T02:19:05.901Z,14.87
2018-12-21T02:25:00.888Z,15.95
2018-12-21T02:30:55.864Z,16.04
2018-12-21T02:36:50.885Z,14.16
2018-12-21T02:42:45.914Z,13.67
2018-12-21T02:48:40.883Z,14.3
2018-12-21T02:54:35.895Z,14.34
2018-12-21T03:00:30.888Z,16.28
2018-12-21T03:06:25.903Z,18.89
2018-12-21T03:12:20.931Z,18.87
2018-12-21T03:18:15.970Z,19
2018-12-21T03:24:10.895Z,18.14
2018-12-21T03:30:05.986Z,18.16
2018-12-21T03:36:00.905Z,17.53
2018-12-21T03:41:55.913Z,17.36
2018-12-21T03:47:50.910Z,17.72
2018-12-21T03:53:46.026Z,17.18
2018-12-21T03:59:40.916Z,16.94
2018-12-21T04:05:35.914Z,17.38
2018-12-21T04:11:30.915Z,17.48
2018-12-21T04:17:25.948Z,38.65
2018-12-21T04:23:21.059Z,17.07
2018-12-21T04:29:15.933Z,18.02
2018-12-21T04:35:10.934Z,17.54
2018-12-21T04:41:05.941Z,20
2018-12-21T04:47:00.965Z,19.41
2018-12-21T04:52:55.935Z,17.8
2018-12-21T04:58:50.954Z,18.19
2018-12-21T05:04:45.977Z,17.49
2018-12-21T05:10:40.954Z,17.59
2018-12-21T05:16:35.960Z,16.73
2018-12-21T05:22:30.986Z,17.19
2018-12-21T05:28:25.955Z,17.11
2018-12-21T05:34:21.016Z,18.06
2018-12-21T05:40:15.971Z,18.96
2018-12-21T05:46:10.978Z,18.22
2018-12-21T05:52:05.998Z,19.02
2018-12-21T05:58:01.012Z,18.9
2018-12-21T06:03:56.012Z,22.49
2018-12-21T06:09:51.008Z,20.07
2018-12-21T06:15:45.966Z,17.54
2018-12-21T06:21:40.998Z,16.63
2018-12-21T06:27:36.006Z,17.81
2018-12-21T06:33:31.015Z,17.49
2018-12-21T06:39:26.000Z,22.35
2018-12-21T06:45:21.015Z,28.18
2018-12-21T06:51:16.045Z,21.2
2018-12-21T06:57:11.083Z,19.09
2018-12-21T07:03:06.010Z,19.93
2018-12-21T07:09:01.009Z,18.39
2018-12-21T07:14:56.018Z,20.73
2018-12-21T07:20:51.019Z,18.87
2018-12-21T07:26:46.017Z,16.51
2018-12-21T07:32:41.056Z,17.63
2018-12-21T07:38:36.052Z,16.82
2018-12-21T07:44:31.045Z,19.28
2018-12-21T07:50:26.057Z,23.4
2018-12-21T07:56:21.037Z,21.87
2018-12-21T08:02:16.081Z,21.12
2018-12-21T08:08:11.054Z,20.83
2018-12-21T08:14:06.046Z,20.2
2018-12-21T08:20:01.073Z,22.77
2018-12-21T08:25:56.045Z,25.98
2018-12-21T08:31:51.038Z,25.23
2018-12-21T08:37:46.064Z,23.09
2018-12-21T08:43:41.048Z,22.74
2018-12-21T08:49:36.094Z,22.76
2018-12-21T08:55:31.070Z,29.41
2018-12-21T09:01:26.063Z,28.1
2018-12-21T09:07:21.068Z,29.56
2018-12-21T09:13:16.071Z,34.27
2018-12-21T09:19:11.068Z,32.2
2018-12-21T09:25:06.068Z,71.1
2018-12-21T09:31:01.084Z,36.44
2018-12-21T09:36:56.125Z,31.56
2018-12-21T09:42:51.091Z,29.33
2018-12-21T09:48:46.089Z,30.36
2018-12-21T09:54:41.123Z,29.49
2018-12-21T10:00:36.096Z,27.64
2018-12-21T10:06:31.092Z,23.6
2018-12-21T10:12:26.127Z,24.67
2018-12-21T10:18:21.138Z,23.83
2018-12-21T10:24:18.561Z,23.57
2018-12-21T10:30:11.120Z,24.21
2018-12-21T10:36:06.109Z,21.83
2018-12-21T10:42:01.103Z,22.8
2018-12-21T10:47:56.126Z,25.88
2018-12-21T10:53:51.128Z,36.43
2018-12-21T10:59:46.162Z,41.64
2018-12-21T11:05:41.129Z,35.64
2018-12-21T11:11:36.165Z,36.34
2018-12-21T11:17:31.123Z,41.28
2018-12-21T11:23:26.126Z,41.93
2018-12-21T11:29:21.136Z,40.3
2018-12-21T11:35:16.145Z,35.47
2018-12-21T11:41:11.155Z,33.32
2018-12-21T11:47:06.166Z,34.21
2018-12-21T11:53:01.139Z,36.35
2018-12-21T11:58:56.213Z,31.2
2018-12-21T12:04:51.195Z,32.48
2018-12-21T12:10:46.137Z,28.8
2018-12-21T12:16:41.184Z,24.23
2018-12-21T12:22:36.183Z,25.43
2018-12-21T12:28:31.180Z,24.16
2018-12-21T12:34:26.201Z,25.85
2018-12-21T12:40:21.177Z,25.1
2018-12-21T12:46:16.190Z,23.53
2018-12-21T12:52:11.185Z,24.52
2018-12-21T12:58:06.182Z,23.88
2018-12-21T13:04:01.188Z,24.5
2018-12-21T13:09:56.207Z,20.52
2018-12-21T13:15:51.190Z,23.41
2018-12-21T13:21:46.223Z,20.68
2018-12-21T13:27:41.224Z,20.55
2018-12-21T13:33:36.197Z,23.47
2018-12-21T13:39:31.209Z,23.4
2018-12-21T13:45:26.187Z,21.56
2018-12-21T13:51:21.219Z,20.23
2018-12-21T13:57:16.236Z,20.25
2018-12-21T14:03:11.213Z,20.58
2018-12-21T14:09:06.230Z,21.11
2018-12-21T14:15:01.230Z,22.42
2018-12-21T14:20:56.230Z,22.83
2018-12-21T14:26:51.235Z,22.09
2018-12-21T14:32:46.240Z,21.59
2018-12-21T14:38:41.245Z,24.22
2018-12-21T14:44:36.249Z,22.69
2018-12-21T14:50:31.273Z,25.67
2018-12-21T14:56:26.297Z,18.42
2018-12-21T15:02:21.281Z,16.76
2018-12-21T15:08:16.251Z,15.57
2018-12-21T15:14:11.261Z,14.49
2018-12-21T15:20:06.268Z,15.65
2018-12-21T15:26:01.324Z,14.34
2018-12-21T15:31:56.274Z,15.42
2018-12-21T15:37:51.287Z,17.47
2018-12-21T15:43:46.290Z,13.97
2018-12-21T15:49:41.319Z,13.71
2018-12-21T15:55:36.313Z,12.66
2018-12-21T16:01:36.699Z,10.08
2018-12-21T16:07:26.286Z,8.63
2018-12-21T16:13:21.300Z,10.47
2018-12-21T16:19:16.329Z,11.92
2018-12-21T16:25:11.311Z,11.9
2018-12-21T16:31:06.298Z,11.1
2018-12-21T16:37:01.330Z,11.38
2018-12-21T16:42:56.294Z,11.25
2018-12-21T16:48:51.338Z,14.33
2018-12-21T16:54:46.338Z,15.26
2018-12-21T17:00:41.313Z,14.28
2018-12-21T17:06:37.176Z,11.91
2018-12-21T17:12:31.329Z,8.96
2018-12-21T17:18:26.332Z,8.75
2018-12-21T17:24:21.356Z,13.42
2018-12-21T17:30:16.384Z,11.36
2018-12-21T17:36:11.335Z,10.68
2018-12-21T17:42:06.331Z,9.39
2018-12-21T17:48:01.371Z,9.89
2018-12-21T17:53:56.339Z,11.76
2018-12-21T17:59:51.354Z,16.07
2018-12-21T18:05:46.350Z,13.34
2018-12-21T18:11:41.361Z,10.4
2018-12-21T18:17:36.357Z,10.47
2018-12-21T18:23:31.331Z,12.82
2018-12-21T18:29:26.369Z,11.26
2018-12-21T18:35:21.443Z,11.3
2018-12-21T18:41:16.387Z,11.98
2018-12-21T18:47:11.359Z,15.31
2018-12-21T18:53:06.370Z,14.77
2018-12-21T18:59:01.377Z,13.99
2018-12-21T19:04:56.390Z,12.16
2018-12-21T19:10:51.378Z,10.48
2018-12-21T19:16:46.373Z,7.04
2018-12-21T19:22:41.399Z,6.66
2018-12-21T19:28:36.430Z,4.85
2018-12-21T19:34:31.408Z,3.21
2018-12-21T19:40:26.422Z,2.45
2018-12-21T19:46:21.422Z,2.37
2018-12-21T19:52:16.404Z,3.06
2018-12-21T19:58:11.393Z,4.42
2018-12-21T20:04:06.455Z,2.69
2018-12-21T20:10:01.428Z,1.77
2018-12-21T20:15:56.440Z,2.81
2018-12-21T20:21:51.410Z,2.6
2018-12-21T20:27:46.430Z,2.48
2018-12-21T20:33:41.444Z,2.81
2018-12-21T20:39:36.427Z,4.07
2018-12-21T20:45:31.427Z,5.03
2018-12-21T20:51:26.446Z,3.7
2018-12-21T20:57:21.781Z,2.13
2018-12-21T21:03:16.432Z,7.42
2018-12-21T21:09:11.428Z,7.39
2018-12-21T21:15:06.444Z,4.67
2018-12-21T21:21:01.481Z,2.75
2018-12-21T21:26:56.463Z,6.99
2018-12-21T21:32:51.443Z,5.43
2018-12-21T21:38:46.469Z,7.02
2018-12-21T21:44:41.460Z,1.72
2018-12-21T21:50:36.439Z,1.76
2018-12-21T21:56:31.460Z,1.45
2018-12-21T22:02:26.506Z,1.31
2018-12-21T22:08:21.496Z,1.34
2018-12-21T22:14:16.502Z,1.39
2018-12-21T22:20:11.475Z,3.22
2018-12-21T22:26:06.521Z,2.14
2018-12-21T22:32:01.478Z,4.91
2018-12-21T22:37:56.484Z,5.65
2018-12-21T22:43:51.510Z,2.26
2018-12-21T22:49:46.506Z,5.03
2018-12-21T22:55:41.488Z,4.98
2018-12-21T23:01:36.486Z,3.1
2018-12-21T23:07:31.487Z,2.74
2018-12-21T23:13:26.507Z,1.06
2018-12-21T23:19:21.504Z,3.06
2018-12-21T23:25:16.508Z,1.07
2018-12-21T23:31:11.528Z,1.72
2018-12-21T23:37:06.505Z,2.98
2018-12-21T23:43:01.583Z,3.96
2018-12-21T23:48:56.504Z,2.04
2018-12-21T23:54:51.536Z,1.44
